Time;durP1;ratioP1;P1;durP2;ratioP2;P2;SDS_P1;SDS_P2;PMS_P1;PMS_P2;Temp;Humidity;BMP_temperature;BMP_pressure;BME280_temperature;BME280_humidity;BME280_pressure;Samples;Min_cycle;Max_cycle;Signal;HPM_P1;HPM_P2
2021/06/16 00:02:26;;;;;;;5.78;3.25;;;;;;;17.41;61.35;100481.84;5038804;28;20463;-77
2021/06/16 00:04:53;;;;;;;5.63;3.78;;;;;;;17.35;61.51;100486.13;5038702;28;20105;-78
2021/06/16 00:07:21;;;;;;;3.88;3.00;;;;;;;17.31;61.51;100485.19;5039125;28;20061;-78
2021/06/16 00:09:48;;;;;;;5.30;3.35;;;;;;;17.30;61.48;100483.53;5038187;28;20060;-78
2021/06/16 00:12:16;;;;;;;6.40;3.35;;;;;;;17.28;61.44;100480.28;5037420;28;20056;-77
2021/06/16 00:14:44;;;;;;;4.50;3.55;;;;;;;17.19;61.91;100479.63;5037531;28;20046;-77
2021/06/16 00:17:12;;;;;;;6.30;3.77;;;;;;;17.14;62.08;100485.53;5038050;28;20050;-78
2021/06/16 00:19:40;;;;;;;6.63;3.42;;;;;;;17.07;62.31;100479.66;5038142;28;20452;-78
2021/06/16 00:22:07;;;;;;;6.68;3.42;;;;;;;17.01;62.60;100481.94;5037963;28;20053;-77
2021/06/16 00:24:34;;;;;;;6.50;3.50;;;;;;;17.00;62.40;100486.72;5036993;28;20049;-77
2021/06/16 00:27:02;;;;;;;5.10;3.75;;;;;;;16.99;62.55;100485.09;5038043;28;20049;-79
2021/06/16 00:29:29;;;;;;;5.97;3.30;;;;;;;16.98;62.55;100486.28;5037160;28;20049;-78
2021/06/16 00:31:58;;;;;;;6.65;3.70;;;;;;;16.91;62.79;100472.00;5037480;28;20049;-78
2021/06/16 00:34:25;;;;;;;5.35;3.40;;;;;;;16.89;62.76;100482.00;5038166;28;20064;-78
2021/06/16 00:36:53;;;;;;;6.30;3.58;;;;;;;16.89;62.70;100473.56;5038408;28;20053;-78
2021/06/16 00:39:20;;;;;;;4.85;3.53;;;;;;;16.90;62.67;100475.16;5038423;28;20057;-78
2021/06/16 00:41:48;;;;;;;4.13;3.30;;;;;;;16.88;62.66;100474.72;5037441;28;20495;-78
2021/06/16 00:44:15;;;;;;;5.78;3.45;;;;;;;16.87;62.71;100476.72;5037276;28;20471;-78
2021/06/16 00:46:43;;;;;;;4.63;3.70;;;;;;;16.79;63.09;100467.19;5037328;28;20046;-78
2021/06/16 00:49:11;;;;;;;3.50;3.20;;;;;;;16.79;63.11;100470.00;5037820;28;20057;-78
2021/06/16 00:51:39;;;;;;;4.17;3.00;;;;;;;16.76;62.99;100467.13;5035850;28;20058;-78
2021/06/16 00:54:10;;;;;;;7.28;3.63;;;;;;;16.76;62.97;100464.31;5036734;28;20464;-78
2021/06/16 00:56:39;;;;;;;5.15;3.30;;;;;;;16.72;63.30;100460.56;5036924;28;20049;-78
2021/06/16 00:59:07;;;;;;;5.68;3.40;;;;;;;16.71;63.38;100458.91;5036858;28;20054;-78
2021/06/16 01:01:39;;;;;;;3.65;3.22;;;;;;;16.72;63.03;100463.38;5039165;28;20057;-78
2021/06/16 01:04:14;;;;;;;4.65;3.05;;;;;;;16.68;62.97;100459.63;5038590;28;20053;-78
2021/06/16 01:06:44;;;;;;;4.50;3.17;;;;;;;16.60;63.34;100459.41;5038041;28;20049;-78
2021/06/16 01:09:16;;;;;;;6.90;3.58;;;;;;;16.57;63.62;100454.50;5036338;28;20057;-78
2021/06/16 01:11:58;;;;;;;5.68;3.50;;;;;;;16.54;63.80;100454.41;5038635;28;20049;-77
2021/06/16 01:14:35;;;;;;;5.75;3.45;;;;;;;16.51;63.83;100455.94;5037896;28;20072;-78
2021/06/16 01:17:06;;;;;;;6.13;3.42;;;;;;;16.53;63.42;100462.03;5038060;28;20056;-78
2021/06/16 01:19:49;;;;;;;6.20;3.30;;;;;;;16.52;63.26;100460.38;5038130;28;20064;-78
2021/06/16 01:22:24;;;;;;;3.88;3.40;;;;;;;16.50;63.53;100457.09;5038451;28;20410;-78
2021/06/16 01:24:53;;;;;;;9.43;3.83;;;;;;;16.48;63.74;100465.06;5037436;28;20075;-78
2021/06/16 01:27:26;;;;;;;8.57;3.55;;;;;;;16.45;63.62;100460.16;5039312;28;20041;-78
2021/06/16 01:29:58;;;;;;;7.20;3.88;;;;;;;16.47;63.69;100455.00;5036886;28;20060;-78
2021/06/16 01:32:26;;;;;;;5.95;3.17;;;;;;;16.45;63.31;100460.16;5038786;28;20049;-78
2021/06/16 01:34:53;;;;;;;5.70;3.33;;;;;;;16.41;63.94;100453.59;5039177;28;20050;-78
2021/06/16 01:37:21;;;;;;;5.45;3.90;;;;;;;16.37;64.19;100447.06;5038898;28;20060;-78
2021/06/16 01:39:49;;;;;;;6.93;3.63;;;;;;;16.34;63.97;100439.34;5037584;28;20049;-78
2021/06/16 01:42:21;;;;;;;4.97;3.65;;;;;;;16.31;64.47;100438.03;5037899;28;20053;-78
2021/06/16 01:44:53;;;;;;;10.70;4.32;;;;;;;16.35;64.04;100438.16;5037281;28;20053;-78
2021/06/16 01:47:22;;;;;;;5.72;3.55;;;;;;;16.35;63.58;100438.16;5036746;28;20053;-78
2021/06/16 01:49:53;;;;;;;6.05;3.60;;;;;;;16.30;63.81;100438.41;5037020;28;20053;-78
2021/06/16 01:52:23;;;;;;;7.60;3.40;;;;;;;16.28;64.06;100435.13;5036589;28;20064;-78
2021/06/16 01:54:52;;;;;;;7.47;3.90;;;;;;;16.23;64.17;100430.56;5036152;28;20053;-78
2021/06/16 01:57:20;;;;;;;7.03;3.53;;;;;;;16.19;64.34;100424.00;5036470;28;20057;-78
2021/06/16 01:59:53;;;;;;;4.78;3.90;;;;;;;16.16;64.28;100425.53;5035961;28;20053;-78
2021/06/16 02:02:20;;;;;;;5.22;3.53;;;;;;;16.17;64.34;100421.56;5035522;28;20053;-78
2021/06/16 02:04:47;;;;;;;5.70;4.22;;;;;;;16.15;64.27;100426.72;5035610;28;20053;-78
2021/06/16 02:07:18;;;;;;;5.68;3.55;;;;;;;16.13;64.08;100426.25;5035985;28;20045;-78
2021/06/16 02:09:47;;;;;;;5.75;4.07;;;;;;;16.14;64.48;100415.81;5035931;28;20061;-78
2021/06/16 02:12:17;;;;;;;10.98;4.32;;;;;;;16.11;64.34;100422.97;5035107;28;20053;-78
2021/06/16 02:14:52;;;;;;;5.97;4.18;;;;;;;16.10;64.07;100426.13;5035235;28;20053;-78
2021/06/16 02:17:21;;;;;;;6.03;3.60;;;;;;;16.10;64.31;100421.31;5035409;28;20052;-78
2021/06/16 02:19:50;;;;;;;7.50;3.83;;;;;;;16.04;64.10;100422.72;5034805;28;20049;-78
2021/06/16 02:22:17;;;;;;;4.97;3.60;;;;;;;16.03;64.39;100418.31;5035830;28;20057;-77
2021/06/16 02:24:46;;;;;;;5.00;4.32;;;;;;;16.06;64.13;100417.59;5034249;28;20049;-77
2021/06/16 02:27:14;;;;;;;5.93;3.80;;;;;;;16.07;63.93;100416.44;5034226;28;20053;-77
2021/06/16 02:29:41;;;;;;;6.25;3.72;;;;;;;16.06;63.69;100419.56;5034450;28;20060;-77
2021/06/16 02:32:10;;;;;;;6.63;4.45;;;;;;;16.04;63.80;100411.50;5034594;28;20053;-77
2021/06/16 02:34:38;;;;;;;6.28;4.18;;;;;;;16.00;64.14;100413.38;5034310;28;20054;-77
2021/06/16 02:37:10;;;;;;;5.93;4.30;;;;;;;15.93;64.32;100418.78;5034872;28;20050;-77
2021/06/16 02:39:41;;;;;;;5.95;3.70;;;;;;;15.90;64.48;100411.06;5033757;28;20064;-77
2021/06/16 02:42:10;;;;;;;4.97;3.72;;;;;;;15.86;64.64;100410.13;5034541;28;20491;-77
2021/06/16 02:44:43;;;;;;;6.97;3.92;;;;;;;15.80;64.74;100410.34;5034045;28;20053;-77
2021/06/16 02:47:13;;;;;;;8.20;4.38;;;;;;;15.85;64.59;100402.84;5033694;28;20057;-77
2021/06/16 02:49:45;;;;;;;6.50;3.88;;;;;;;15.86;64.68;100407.31;5033796;28;20053;-77
2021/06/16 02:52:16;;;;;;;6.55;3.92;;;;;;;15.75;65.01;100402.16;5033362;28;20064;-77
2021/06/16 02:54:46;;;;;;;6.35;4.20;;;;;;;15.75;65.46;100406.97;5036550;28;20049;-77
2021/06/16 02:57:19;;;;;;;6.93;4.07;;;;;;;15.75;65.58;100404.16;5033214;28;20076;-77
2021/06/16 02:59:48;;;;;;;6.38;4.30;;;;;;;15.78;65.11;100398.66;5033889;28;20057;-77
2021/06/16 03:02:21;;;;;;;6.93;3.90;;;;;;;15.80;64.74;100401.94;5033713;28;20053;-77
2021/06/16 03:04:48;;;;;;;8.48;4.32;;;;;;;15.82;64.77;100399.59;5032831;28;20376;-77
2021/06/16 03:07:17;;;;;;;5.93;4.00;;;;;;;15.78;64.82;100404.25;5033253;28;20067;-77
2021/06/16 03:09:46;;;;;;;8.33;4.23;;;;;;;15.78;64.69;100401.47;5033999;28;20380;-77
2021/06/16 03:12:16;;;;;;;7.43;4.40;;;;;;;15.73;65.23;100396.09;5033404;28;20049;-77
2021/06/16 03:14:46;;;;;;;6.30;4.40;;;;;;;15.71;65.36;100392.78;5033048;28;20072;-77
2021/06/16 03:17:14;;;;;;;7.20;4.03;;;;;;;15.77;64.91;100390.56;5033142;28;20049;-77
2021/06/16 03:19:43;;;;;;;6.90;3.80;;;;;;;15.80;64.56;100395.50;5033510;28;20058;-77
2021/06/16 03:22:11;;;;;;;7.05;4.20;;;;;;;15.79;64.73;100389.06;5033484;28;20410;-77
2021/06/16 03:24:40;;;;;;;6.70;4.30;;;;;;;15.78;65.06;100393.03;5033131;28;20053;-76
2021/06/16 03:27:09;;;;;;;8.25;4.53;;;;;;;15.78;65.27;100395.84;5033611;28;20510;-77
2021/06/16 03:29:38;;;;;;;9.93;4.50;;;;;;;15.78;64.88;100395.84;5033496;28;20057;-77
2021/06/16 03:32:08;;;;;;;7.18;4.32;;;;;;;15.81;64.92;100397.97;5033627;28;20992;-77
2021/06/16 03:34:36;;;;;;;7.57;4.10;;;;;;;15.85;64.97;100394.44;5033344;28;20056;-77
2021/06/16 03:37:09;;;;;;;8.40;3.65;;;;;;;15.91;64.68;100393.84;5033307;28;20054;-79
2021/06/16 03:39:38;;;;;;;7.10;3.70;;;;;;;15.97;64.59;100400.84;5033785;28;20086;-76
2021/06/16 03:42:07;;;;;;;5.83;4.13;;;;;;;16.01;64.59;100392.56;5034444;28;20403;-77
2021/06/16 03:44:36;;;;;;;7.90;4.25;;;;;;;16.02;64.23;100391.38;5034382;28;20460;-78
2021/06/16 03:47:05;;;;;;;7.32;4.05;;;;;;;16.05;64.48;100384.25;5034960;28;20049;-78
2021/06/16 03:49:32;;;;;;;6.33;4.20;;;;;;;16.11;64.25;100386.44;5035082;28;20054;-78
2021/06/16 03:52:02;;;;;;;5.30;4.38;;;;;;;16.16;64.48;100380.56;5035026;28;20475;-77
2021/06/16 03:54:31;;;;;;;5.88;4.38;;;;;;;16.18;64.03;100383.84;5036675;28;20045;-78
2021/06/16 03:56:59;;;;;;;6.60;3.90;;;;;;;16.18;64.03;100383.03;5035987;28;20129;-78
2021/06/16 03:59:27;;;;;;;6.15;4.10;;;;;;;16.27;63.88;100380.09;5034542;28;20053;-78
2021/06/16 04:01:54;;;;;;;7.50;4.07;;;;;;;16.22;63.99;100379.16;5037685;28;20049;-78
2021/06/16 04:04:24;;;;;;;5.95;4.32;;;;;;;16.23;64.36;100374.34;5037771;28;20064;-78
2021/06/16 04:06:52;;;;;;;6.18;4.30;;;;;;;16.23;64.01;100368.72;5037413;28;20042;-78
2021/06/16 04:09:20;;;;;;;8.13;4.70;;;;;;;16.27;63.85;100366.03;5036498;28;20053;-78
2021/06/16 04:11:49;;;;;;;10.15;5.10;;;;;;;16.29;64.12;100366.50;5037542;28;20049;-78
2021/06/16 04:14:16;;;;;;;7.65;4.63;;;;;;;16.33;64.02;100361.78;5037611;28;20064;-78
2021/06/16 04:16:44;;;;;;;8.80;4.78;;;;;;;16.32;64.10;100362.97;5036617;28;20053;-78
2021/06/16 04:19:12;;;;;;;6.07;4.90;;;;;;;16.36;64.19;100361.91;5037211;28;20050;-78
2021/06/16 04:21:40;;;;;;;7.90;4.70;;;;;;;16.41;63.76;100358.84;5037377;28;20418;-78
2021/06/16 04:24:07;;;;;;;7.07;4.47;;;;;;;16.46;63.74;100363.38;5036540;28;20061;-78
2021/06/16 04:26:35;;;;;;;7.38;4.65;;;;;;;16.50;63.63;100364.31;5038962;28;20057;-79
2021/06/16 04:29:04;;;;;;;11.48;5.10;;;;;;;16.48;63.71;100361.03;5040656;28;20053;-78
2021/06/16 04:31:31;;;;;;;6.70;4.88;;;;;;;16.54;63.63;100353.97;5041768;28;20058;-79
2021/06/16 04:33:59;;;;;;;9.68;5.47;;;;;;;16.60;63.65;100354.56;5041457;28;20049;-78
2021/06/16 04:36:27;;;;;;;7.05;4.63;;;;;;;16.65;63.67;100351.47;5030693;28;20045;-78
2021/06/16 04:38:54;;;;;;;7.50;4.40;;;;;;;16.71;63.36;100347.22;5041332;28;20041;-78
2021/06/16 04:41:22;;;;;;;8.38;5.15;;;;;;;16.79;63.13;100346.25;5040943;28;20069;-78
2021/06/16 04:43:49;;;;;;;6.95;4.65;;;;;;;16.92;62.81;100347.03;5040802;28;20046;-78
2021/06/16 04:46:18;;;;;;;6.95;5.13;;;;;;;16.98;62.60;100347.59;5030650;28;20387;-78
2021/06/16 04:48:45;;;;;;;7.80;5.17;;;;;;;17.03;62.62;100350.16;5038152;28;20033;-78
2021/06/16 04:51:13;;;;;;;6.82;5.13;;;;;;;17.13;62.44;100352.41;5037627;28;20065;-78
2021/06/16 04:53:40;;;;;;;7.22;5.25;;;;;;;17.19;62.33;100345.31;5042715;28;20054;-78
2021/06/16 04:56:07;;;;;;;6.38;4.93;;;;;;;17.33;61.71;100341.25;5035524;28;20053;-78
2021/06/16 04:58:34;;;;;;;10.13;5.63;;;;;;;17.41;61.46;100343.06;5041459;28;20057;-78
2021/06/16 05:01:02;;;;;;;9.85;5.70;;;;;;;17.52;61.09;100334.88;5032213;28;20054;-78
2021/06/16 05:03:31;;;;;;;10.30;5.13;;;;;;;17.53;60.99;100337.31;5040887;28;20053;-78
2021/06/16 05:05:58;;;;;;;8.10;5.00;;;;;;;17.59;60.70;100344.31;5038435;28;20060;-78
2021/06/16 05:08:25;;;;;;;5.97;4.93;;;;;;;17.64;60.57;100334.78;5036843;28;20033;-78
2021/06/16 05:10:53;;;;;;;9.25;5.70;;;;;;;17.72;59.98;100336.56;5036890;28;20042;-78
2021/06/16 05:13:23;;;;;;;10.13;5.57;;;;;;;17.75;60.03;100335.84;5041502;28;20060;-78
2021/06/16 05:15:51;;;;;;;8.43;5.63;;;;;;;17.79;60.15;100333.13;5039659;28;20057;-78
2021/06/16 05:18:19;;;;;;;6.93;5.25;;;;;;;17.89;59.65;100329.78;5041035;28;20057;-78
2021/06/16 05:20:48;;;;;;;8.90;6.43;;;;;;;18.01;59.62;100326.00;5033181;28;20048;-78
2021/06/16 05:23:15;;;;;;;8.80;5.47;;;;;;;18.09;59.25;100322.13;5036617;28;20049;-78
2021/06/16 05:25:47;;;;;;;14.40;9.48;;;;;;;18.15;59.08;100323.47;5035009;28;20053;-78
2021/06/16 05:28:14;;;;;;;12.02;6.75;;;;;;;18.23;59.02;100324.47;5038140;28;20058;-78
2021/06/16 05:30:41;;;;;;;9.38;5.63;;;;;;;18.33;58.75;100321.06;5034259;28;20057;-78
2021/06/16 05:33:09;;;;;;;9.52;6.00;;;;;;;18.46;58.39;100319.72;5040759;28;20506;-78
2021/06/16 05:35:36;;;;;;;10.10;6.50;;;;;;;18.50;58.84;100316.97;5030310;28;20060;-78
2021/06/16 05:38:05;;;;;;;9.23;6.65;;;;;;;18.65;59.11;100320.88;5040383;28;20057;-78
2021/06/16 05:40:32;;;;;;;9.93;7.30;;;;;;;18.70;59.03;100312.09;5040352;28;20049;-78
2021/06/16 05:42:59;;;;;;;10.50;7.05;;;;;;;18.75;59.22;100317.47;5040296;28;20060;-78
2021/06/16 05:45:27;;;;;;;13.27;7.50;;;;;;;18.84;59.04;100320.06;5040478;28;20053;-78
2021/06/16 05:47:56;;;;;;;11.55;7.20;;;;;;;18.95;59.16;100311.78;5038788;28;20061;-78
2021/06/16 05:50:23;;;;;;;10.18;7.00;;;;;;;19.05;58.99;100317.63;5040454;28;20410;-78
2021/06/16 05:52:50;;;;;;;10.48;6.72;;;;;;;19.17;58.63;100310.16;5039774;28;20093;-79
2021/06/16 05:55:19;;;;;;;12.15;7.88;;;;;;;19.18;59.19;100315.44;5035812;28;20049;-75
2021/06/16 05:57:46;;;;;;;11.88;7.35;;;;;;;19.33;59.16;100308.00;5026577;28;20041;-76
2021/06/16 06:00:14;;;;;;;9.80;7.15;;;;;;;19.50;58.16;100306.66;5032747;28;20121;-75
2021/06/16 06:02:45;;;;;;;10.02;7.22;;;;;;;19.70;57.93;100306.56;5034149;28;20056;-75
2021/06/16 06:05:13;;;;;;;9.70;7.90;;;;;;;19.91;57.83;100312.56;5034388;28;20387;-75
2021/06/16 06:07:40;;;;;;;20.05;8.40;;;;;;;20.10;57.31;100305.97;5033925;28;20060;-75
2021/06/16 06:10:08;;;;;;;13.43;6.90;;;;;;;20.31;56.73;100304.63;5034030;28;20390;-74
2021/06/16 06:12:37;;;;;;;11.68;7.45;;;;;;;20.48;56.87;100292.69;5030771;28;20491;-76
2021/06/16 06:15:06;;;;;;;11.75;6.85;;;;;;;20.62;56.48;100295.72;5029548;28;20392;-75
2021/06/16 06:17:33;;;;;;;;;;;;;;;20.84;56.11;100288.25;5033537;28;20483;-76
2021/06/16 06:20:00;;;;;;;11.32;7.05;;;;;;;21.13;55.08;100302.69;5034784;28;19928;-76
2021/06/16 06:22:28;;;;;;;9.82;7.88;;;;;;;21.36;54.66;100293.19;5034732;28;20132;-76
2021/06/16 06:24:55;;;;;;;10.35;6.85;;;;;;;21.49;54.80;100283.19;5034284;28;20064;-76
2021/06/16 06:27:22;;;;;;;8.73;6.00;;;;;;;21.63;54.41;100288.16;5034027;28;20056;-75
2021/06/16 06:29:51;;;;;;;13.55;6.75;;;;;;;21.68;54.67;100290.59;5032101;28;20056;-76
2021/06/16 06:32:18;;;;;;;9.60;6.22;;;;;;;21.73;54.58;100295.09;5049591;28;20065;-76
2021/06/16 06:34:46;;;;;;;8.65;6.57;;;;;;;21.62;54.96;100283.69;5037290;28;20054;-76
2021/06/16 06:37:13;;;;;;;8.70;6.53;;;;;;;21.85;54.37;100284.22;5014206;28;20049;-76
2021/06/16 06:39:41;;;;;;;9.52;6.82;;;;;;;21.89;54.16;100282.22;5030672;28;20505;-75
2021/06/16 06:42:08;;;;;;;9.25;6.25;;;;;;;21.99;53.93;100283.50;5019058;28;20325;-74
2021/06/16 06:44:36;;;;;;;9.65;5.70;;;;;;;22.24;52.93;100277.97;5033511;28;20076;-75
2021/06/16 06:47:05;;;;;;;8.65;5.82;;;;;;;22.45;52.35;100267.91;5033605;28;20053;-75
2021/06/16 06:49:32;;;;;;;9.18;6.18;;;;;;;22.60;51.53;100266.72;5032936;28;20049;-74
2021/06/16 06:51:59;;;;;;;11.55;6.30;;;;;;;22.80;51.82;100263.53;5038027;28;20061;-78
2021/06/16 06:54:27;;;;;;;9.30;6.70;;;;;;;22.93;51.83;100269.63;5037989;28;20360;-79
2021/06/16 06:56:54;;;;;;;8.70;5.70;;;;;;;23.15;51.11;100264.81;5032884;28;20058;-78
2021/06/16 06:59:21;;;;;;;8.32;5.75;;;;;;;23.28;50.84;100252.59;5031546;28;20045;-79
2021/06/16 07:01:49;;;;;;;8.82;5.90;;;;;;;23.47;51.31;100259.91;5032814;28;20045;-80
2021/06/16 07:04:17;;;;;;;11.27;5.93;;;;;;;23.68;50.69;100252.56;5032008;28;20076;-79
2021/06/16 07:06:45;;;;;;;8.80;5.63;;;;;;;23.84;50.02;100250.13;5033092;28;20060;-79
2021/06/16 07:09:12;;;;;;;7.88;5.70;;;;;;;23.99;50.05;100250.88;5024558;28;20410;-79
2021/06/16 07:11:39;;;;;;;9.52;5.90;;;;;;;24.21;49.14;100251.63;5032429;28;20069;-79
2021/06/16 07:14:07;;;;;;;9.70;5.47;;;;;;;24.40;49.27;100243.78;5035914;28;20060;-77
2021/06/16 07:16:34;;;;;;;9.82;5.28;;;;;;;24.45;48.23;100240.50;5032097;28;20494;-77
2021/06/16 07:19:01;;;;;;;7.32;5.80;;;;;;;24.68;49.68;100234.28;5032867;28;20061;-78
2021/06/16 07:21:30;;;;;;;7.03;4.85;;;;;;;24.72;48.78;100229.38;5038104;28;20057;-77
2021/06/16 07:23:58;;;;;;;6.57;4.60;;;;;;;24.77;47.17;100230.97;5033788;28;20045;-80
2021/06/16 07:26:25;;;;;;;10.13;5.30;;;;;;;24.91;48.08;100219.47;5035766;28;20054;-81
2021/06/16 07:28:52;;;;;;;7.22;4.75;;;;;;;25.13;47.41;100220.09;5031520;28;20045;-80
2021/06/16 07:31:20;;;;;;;8.00;5.05;;;;;;;25.34;46.54;100229.72;5034106;28;20053;-80
2021/06/16 07:33:47;;;;;;;7.38;4.82;;;;;;;25.63;46.83;100218.81;5034624;28;20053;-78
2021/06/16 07:36:15;;;;;;;6.22;4.57;;;;;;;25.95;46.29;100223.38;5036278;28;20046;-78
2021/06/16 07:38:43;;;;;;;8.90;4.75;;;;;;;26.20;45.31;100221.00;5016237;28;20050;-78
2021/06/16 07:41:11;;;;;;;6.55;4.97;;;;;;;26.52;44.69;100223.44;5018776;28;20062;-78
2021/06/16 07:43:38;;;;;;;9.15;4.68;;;;;;;26.76;44.47;100222.72;5034301;28;20053;-79
2021/06/16 07:46:05;;;;;;;10.15;5.22;;;;;;;26.96;44.21;100215.00;5035199;28;20057;-78
2021/06/16 07:48:32;;;;;;;10.73;5.25;;;;;;;27.10;44.68;100209.06;5034461;28;20069;-78
2021/06/16 07:51:00;;;;;;;8.55;5.07;;;;;;;27.29;43.57;100212.44;5035304;28;20120;-78
2021/06/16 07:53:27;;;;;;;6.75;4.55;;;;;;;27.52;43.38;100215.28;5036481;28;20053;-78
2021/06/16 07:55:56;;;;;;;8.25;5.57;;;;;;;27.67;41.14;100206.44;5034738;28;20479;-78
2021/06/16 07:58:24;;;;;;;6.82;3.97;;;;;;;28.16;40.77;100197.25;5035866;28;20053;-79
2021/06/16 08:00:52;;;;;;;6.78;4.53;;;;;;;29.21;39.69;100193.56;5034971;28;20060;-81
2021/06/16 08:03:19;;;;;;;6.05;4.47;;;;;;;29.99;37.12;100189.78;5040287;28;20057;-79
2021/06/16 08:05:47;;;;;;;7.75;4.22;;;;;;;30.57;36.34;100194.63;5039361;28;20050;-79
2021/06/16 08:08:14;;;;;;;7.43;4.77;;;;;;;31.42;33.17;100179.44;5037139;28;20053;-80
2021/06/16 08:10:42;;;;;;;5.18;4.20;;;;;;;32.07;32.46;100185.75;5039410;28;20064;-80
2021/06/16 08:13:11;;;;;;;7.95;4.65;;;;;;;32.75;32.58;100175.19;5037250;28;20683;-80
2021/06/16 08:15:38;;;;;;;5.82;4.00;;;;;;;33.44;29.59;100178.88;5036893;28;20056;-79
2021/06/16 08:18:07;;;;;;;4.93;3.80;;;;;;;33.90;29.43;100167.31;5039086;28;20403;-81
2021/06/16 08:20:34;;;;;;;;;;;;;;;34.38;29.79;100172.53;5040326;28;20466;-79
2021/06/16 08:23:02;;;;;;;6.18;3.88;;;;;;;35.05;27.59;100164.66;5036324;28;19932;-79
2021/06/16 08:25:30;;;;;;;6.85;4.18;;;;;;;35.60;27.08;100168.44;5037798;28;20061;-80
2021/06/16 08:27:57;;;;;;;6.70;3.88;;;;;;;36.15;26.67;100165.06;5037492;28;20061;-78
2021/06/16 08:30:26;;;;;;;9.15;4.57;;;;;;;36.81;25.63;100160.84;5036642;28;20049;-79
2021/06/16 08:32:54;;;;;;;10.45;4.53;;;;;;;37.14;24.21;100162.66;5029398;28;20053;-80
2021/06/16 08:35:21;;;;;;;6.25;4.13;;;;;;;37.30;24.09;100150.47;5038815;28;20516;-78
2021/06/16 08:37:48;;;;;;;6.45;4.07;;;;;;;37.85;23.87;100157.44;5032819;28;20056;-78
2021/06/16 08:40:17;;;;;;;6.03;3.63;;;;;;;38.11;23.45;100153.75;5038388;28;20054;-80
2021/06/16 08:42:46;;;;;;;5.95;3.60;;;;;;;38.84;22.76;100151.41;5034736;28;20053;-80
2021/06/16 08:45:14;;;;;;;5.20;3.83;;;;;;;39.48;21.58;100142.47;5035890;28;20058;-78
2021/06/16 08:47:46;;;;;;;7.15;3.95;;;;;;;39.79;20.74;100141.50;5030039;28;20060;-78
2021/06/16 08:50:14;;;;;;;6.82;3.97;;;;;;;40.09;20.74;100141.84;5037243;28;20088;-79
2021/06/16 08:52:42;;;;;;;7.47;3.80;;;;;;;40.53;20.43;100140.25;5039821;28;20057;-80
2021/06/16 08:55:11;;;;;;;;;;;;;;;41.00;20.46;100135.91;5033891;28;20065;-81
2021/06/16 08:57:39;;;;;;;6.20;3.65;;;;;;;41.61;19.08;100126.09;5034752;28;19921;-80
2021/06/16 09:00:10;;;;;;;4.95;3.72;;;;;;;41.62;19.71;100132.72;5037327;28;20696;-79
2021/06/16 09:02:37;;;;;;;5.25;3.80;;;;;;;42.11;18.67;100130.81;5028146;28;20053;-79
2021/06/16 09:05:07;;;;;;;5.63;3.83;;;;;;;42.55;17.99;100128.06;5033345;28;20732;-77
2021/06/16 09:07:37;;;;;;;5.20;3.47;;;;;;;43.10;17.68;100127.97;5035264;28;20046;-80
2021/06/16 09:10:08;;;;;;;6.03;3.83;;;;;;;43.51;17.43;100136.53;5037863;28;20053;-81
2021/06/16 09:12:43;;;;;;;4.97;3.80;;;;;;;44.21;16.54;100132.00;5034055;28;20049;-79
2021/06/16 09:15:15;;;;;;;5.53;3.83;;;;;;;44.70;16.17;100123.66;5030849;28;20061;-80
2021/06/16 09:17:58;;;;;;;5.18;4.15;;;;;;;44.76;16.26;100126.50;5030510;28;20056;-79
2021/06/16 09:20:28;;;;;;;5.65;3.80;;;;;;;45.29;15.76;100117.66;5035704;28;20049;-79
2021/06/16 09:23:09;;;;;;;6.85;3.97;;;;;;;45.60;15.04;100123.16;5022770;28;20056;-80
2021/06/16 09:25:36;;;;;;;5.70;4.13;;;;;;;46.35;14.78;100116.50;5034151;28;20491;-82
2021/06/16 09:28:03;;;;;;;5.65;3.55;;;;;;;46.81;14.05;100124.94;5033104;28;20061;-79
2021/06/16 09:30:48;;;;;;;6.85;4.20;;;;;;;47.06;13.72;100115.63;5028455;28;20042;-79
2021/06/16 09:33:17;;;;;;;8.27;4.28;;;;;;;47.28;14.37;100117.16;5016989;28;20057;-78
2021/06/16 09:35:49;;;;;;;6.40;4.07;;;;;;;47.53;13.66;100112.34;5033419;28;20065;-78
2021/06/16 09:38:24;;;;;;;6.40;3.90;;;;;;;48.09;13.75;100108.94;5030871;28;20053;-80
2021/06/16 09:40:51;;;;;;;5.03;3.97;;;;;;;48.62;13.58;100107.34;5035964;28;20050;-79
2021/06/16 09:43:21;;;;;;;6.57;4.30;;;;;;;48.88;12.58;100115.81;5016675;28;20387;-78
2021/06/16 09:45:54;;;;;;;6.28;3.95;;;;;;;49.40;12.14;100115.47;5035246;28;20053;-79
2021/06/16 09:48:30;;;;;;;5.93;4.18;;;;;;;49.63;12.11;100114.56;5031928;28;20459;-80
2021/06/16 09:51:20;;;;;;;6.40;4.28;;;;;;;49.77;11.53;100107.00;5037862;28;20050;-79
2021/06/16 09:54:13;;;;;;;5.32;4.22;;;;;;;50.18;11.50;100107.72;5017714;28;20495;-78
2021/06/16 09:56:42;;;;;;;7.25;4.65;;;;;;;50.56;11.46;100107.38;5024435;28;20053;-78
2021/06/16 09:59:11;;;;;;;5.40;4.25;;;;;;;50.90;11.07;100099.91;5035929;28;20057;-78
2021/06/16 10:01:49;;;;;;;5.60;3.83;;;;;;;51.30;11.49;100098.84;5024536;28;21736;-77
2021/06/16 10:04:39;;;;;;;6.75;4.43;;;;;;;51.35;10.37;100088.13;5031476;28;20053;-78
2021/06/16 10:07:20;;;;;;;5.75;4.63;;;;;;;52.11;10.20;100088.41;5033362;28;20065;-80
2021/06/16 10:09:49;;;;;;;4.78;4.00;;;;;;;52.31;9.97;100081.13;5024426;28;20065;-78
2021/06/16 10:12:17;;;;;;;5.13;4.20;;;;;;;52.61;9.53;100079.03;5030203;28;20479;-77
2021/06/16 10:14:44;;;;;;;5.18;4.15;;;;;;;52.54;10.32;100074.78;5037113;28;20483;-77
2021/06/16 10:17:14;;;;;;;5.90;4.18;;;;;;;52.81;9.91;100064.19;5026470;28;20064;-76
2021/06/16 10:19:42;;;;;;;5.28;4.55;;;;;;;53.01;9.63;100065.75;4999951;28;20622;-76
2021/06/16 10:22:12;;;;;;;6.80;4.47;;;;;;;53.38;9.89;100055.84;5024552;28;20050;-76
2021/06/16 10:24:41;;;;;;;6.25;4.40;;;;;;;53.69;9.42;100058.91;5021051;28;20053;-76
2021/06/16 10:27:12;;;;;;;5.43;4.03;;;;;;;53.86;9.50;100058.69;5030494;28;20406;-76
2021/06/16 10:29:46;;;;;;;5.68;4.47;;;;;;;53.30;9.47;100061.94;5024090;28;20068;-77
2021/06/16 10:32:14;;;;;;;7.43;4.53;;;;;;;53.69;9.63;100053.72;5025678;28;20049;-75
2021/06/16 10:35:00;;;;;;;6.57;4.40;;;;;;;53.79;9.82;100055.88;5028836;28;20054;-76
2021/06/16 10:37:33;;;;;;;5.78;4.05;;;;;;;53.99;9.13;100054.38;5021996;28;20042;-76
2021/06/16 10:40:33;;;;;;;4.93;4.43;;;;;;;53.67;9.08;100062.50;5031745;28;20076;-76
2021/06/16 10:43:25;;;;;;;4.93;4.30;;;;;;;54.16;8.92;100068.28;5018724;28;20054;-76
2021/06/16 10:45:58;;;;;;;5.63;4.63;;;;;;;52.40;10.22;100057.97;5029479;28;20050;-76
2021/06/16 10:48:49;;;;;;;5.93;3.65;;;;;;;51.82;10.46;100052.63;5029510;28;20053;-76
2021/06/16 10:51:27;;;;;;;4.90;4.40;;;;;;;52.52;10.16;100053.03;5030348;28;20041;-76
2021/06/16 10:54:14;;;;;;;8.07;4.28;;;;;;;52.79;9.86;100052.09;5033014;28;20049;-77
2021/06/16 10:56:43;;;;;;;6.43;4.28;;;;;;;52.74;10.30;100059.94;5035021;28;20049;-76
2021/06/16 10:59:13;;;;;;;6.68;4.00;;;;;;;52.75;9.99;100059.28;5033727;28;20052;-77
2021/06/16 11:01:48;;;;;;;4.22;3.80;;;;;;;52.90;9.90;100051.50;5029848;28;20060;-77
2021/06/16 11:04:37;;;;;;;5.50;3.92;;;;;;;53.23;10.31;100051.78;5014006;28;20073;-77
2021/06/16 11:07:05;;;;;;;6.03;4.15;;;;;;;53.59;9.31;100046.25;5021009;28;20391;-77
2021/06/16 11:09:52;;;;;;;5.13;4.50;;;;;;;53.83;9.19;100042.09;5031610;28;20049;-78
2021/06/16 11:12:29;;;;;;;5.53;4.03;;;;;;;54.25;9.48;100043.59;5028391;28;20049;-77
2021/06/16 11:14:58;;;;;;;6.53;4.25;;;;;;;53.78;9.34;100039.41;5017712;28;20476;-77
2021/06/16 11:17:42;;;;;;;5.82;4.53;;;;;;;54.42;9.05;100032.81;5027598;28;20053;-77
2021/06/16 11:20:12;;;;;;;5.10;4.13;;;;;;;54.15;9.46;100027.97;5022897;28;20475;-76
2021/06/16 11:22:44;;;;;;;3.97;3.60;;;;;;;54.33;9.22;100028.47;5026526;28;20061;-76
2021/06/16 11:25:34;;;;;;;4.38;3.22;;;;;;;54.05;8.63;100019.06;5030690;28;20050;-78
2021/06/16 11:28:46;;;;;;;6.28;3.83;;;;;;;52.13;8.90;100012.09;5024135;28;20057;-77
2021/06/16 11:31:15;;;;;;;4.72;3.92;;;;;;;51.95;9.29;100011.38;5012175;28;20045;-79
2021/06/16 11:33:50;;;;;;;4.50;3.75;;;;;;;51.96;8.68;100015.94;5032481;28;20057;-77
2021/06/16 11:36:27;;;;;;;5.32;3.88;;;;;;;50.65;10.48;100011.00;5027512;28;20427;-77
2021/06/16 11:38:58;;;;;;;4.40;3.38;;;;;;;50.66;8.73;100009.63;5037243;28;20060;-78
2021/06/16 11:41:27;;;;;;;4.07;3.55;;;;;;;49.22;10.12;100010.19;5038122;28;20053;-78